sensor_id;sensor_type;location;lat;lon;timestamp;temperature;humidity
4054;DHT22;2042;47.956;9.222;2023-03-11T00:00:23;2.20;1.00
4054;DHT22;2042;47.956;9.222;2023-03-11T00:02:51;2.20;1.00
4054;DHT22;2042;47.956;9.222;2023-03-11T00:05:20;2.20;1.00
4054;DHT22;2042;47.956;9.222;2023-03-11T00:07:46;2.20;1.00
4054;DHT22;2042;47.956;9.222;2023-03-11T00:10:24;2.20;1.00
4054;DHT22;2042;47.956;9.222;2023-03-11T00:12:51;2.20;1.00
4054;DHT22;2042;47.956;9.222;2023-03-11T00:15:17;2.20;1.00
4054;DHT22;2042;47.956;9.222;2023-03-11T00:17:43;2.30;1.00
4054;DHT22;2042;47.956;9.222;2023-03-11T00:20:21;2.30;1.00
4054;DHT22;2042;47.956;9.222;2023-03-11T00:22:47;2.20;1.00
4054;DHT22;2042;47.956;9.222;2023-03-11T00:25:13;2.20;1.00
4054;DHT22;2042;47.956;9.222;2023-03-11T00:27:39;2.20;1.00
4054;DHT22;2042;47.956;9.222;2023-03-11T00:30:05;2.10;1.00
4054;DHT22;2042;47.956;9.222;2023-03-11T00:32:31;2.10;1.00
4054;DHT22;2042;47.956;9.222;2023-03-11T00:34:57;2.20;1.00
4054;DHT22;2042;47.956;9.222;2023-03-11T00:37:22;2.20;1.00
4054;DHT22;2042;47.956;9.222;2023-03-11T00:39:48;2.10;1.00
4054;DHT22;2042;47.956;9.222;2023-03-11T00:42:14;2.10;1.00
4054;DHT22;2042;47.956;9.222;2023-03-11T00:44:39;2.10;1.00
4054;DHT22;2042;47.956;9.222;2023-03-11T00:47:05;2.10;1.00
4054;DHT22;2042;47.956;9.222;2023-03-11T00:49:31;2.10;1.00
4054;DHT22;2042;47.956;9.222;2023-03-11T00:51:57;2.10;1.00
4054;DHT22;2042;47.956;9.222;2023-03-11T00:54:22;2.00;1.00
4054;DHT22;2042;47.956;9.222;2023-03-11T00:56:48;2.00;1.00
4054;DHT22;2042;47.956;9.222;2023-03-11T00:59:14;2.00;1.00
4054;DHT22;2042;47.956;9.222;2023-03-11T01:01:39;2.00;1.00
4054;DHT22;2042;47.956;9.222;2023-03-11T01:04:05;2.00;1.00
4054;DHT22;2042;47.956;9.222;2023-03-11T01:06:31;2.00;1.00
4054;DHT22;2042;47.956;9.222;2023-03-11T01:08:56;1.90;1.00
4054;DHT22;2042;47.956;9.222;2023-03-11T01:11:22;1.90;1.00
4054;DHT22;2042;47.956;9.222;2023-03-11T01:13:47;1.90;1.00
4054;DHT22;2042;47.956;9.222;2023-03-11T01:16:13;1.90;1.00
4054;DHT22;2042;47.956;9.222;2023-03-11T01:18:39;1.90;1.00
4054;DHT22;2042;47.956;9.222;2023-03-11T01:21:04;1.90;1.00
4054;DHT22;2042;47.956;9.222;2023-03-11T01:23:30;1.90;1.00
4054;DHT22;2042;47.956;9.222;2023-03-11T01:25:57;1.90;1.00
4054;DHT22;2042;47.956;9.222;2023-03-11T01:28:22;1.80;1.00
4054;DHT22;2042;47.956;9.222;2023-03-11T01:30:48;1.80;1.00
4054;DHT22;2042;47.956;9.222;2023-03-11T01:33:18;1.80;1.00
4054;DHT22;2042;47.956;9.222;2023-03-11T01:35:44;1.80;1.00
4054;DHT22;2042;47.956;9.222;2023-03-11T01:38:11;1.80;1.00
4054;DHT22;2042;47.956;9.222;2023-03-11T01:40:41;1.70;1.00
4054;DHT22;2042;47.956;9.222;2023-03-11T01:43:37;1.80;1.00
4054;DHT22;2042;47.956;9.222;2023-03-11T01:48:29;1.80;1.00
4054;DHT22;2042;47.956;9.222;2023-03-11T01:50:55;1.80;1.00
4054;DHT22;2042;47.956;9.222;2023-03-11T01:53:23;1.80;1.00
4054;DHT22;2042;47.956;9.222;2023-03-11T01:55:49;1.80;1.00
4054;DHT22;2042;47.956;9.222;2023-03-11T01:58:18;1.80;1.00
4054;DHT22;2042;47.956;9.222;2023-03-11T02:00:45;1.80;1.00
4054;DHT22;2042;47.956;9.222;2023-03-11T02:03:23;1.80;1.00
4054;DHT22;2042;47.956;9.222;2023-03-11T02:05:51;1.70;1.00
4054;DHT22;2042;47.956;9.222;2023-03-11T02:08:17;1.70;1.00
4054;DHT22;2042;47.956;9.222;2023-03-11T02:10:43;1.70;1.00
4054;DHT22;2042;47.956;9.222;2023-03-11T02:13:09;1.70;1.00
4054;DHT22;2042;47.956;9.222;2023-03-11T02:15:35;1.60;1.00
4054;DHT22;2042;47.956;9.222;2023-03-11T02:18:04;1.50;1.00
4054;DHT22;2042;47.956;9.222;2023-03-11T02:21:02;1.50;1.00
4054;DHT22;2042;47.956;9.222;2023-03-11T02:23:38;1.40;1.00
4054;DHT22;2042;47.956;9.222;2023-03-11T02:26:23;1.30;1.00
4054;DHT22;2042;47.956;9.222;2023-03-11T02:28:52;1.20;1.00
4054;DHT22;2042;47.956;9.222;2023-03-11T02:31:19;1.10;1.00
4054;DHT22;2042;47.956;9.222;2023-03-11T02:33:47;1.10;1.00
4054;DHT22;2042;47.956;9.222;2023-03-11T02:36:37;1.00;1.00
4054;DHT22;2042;47.956;9.222;2023-03-11T02:39:03;1.00;1.00
4054;DHT22;2042;47.956;9.222;2023-03-11T02:41:31;1.10;1.00
4054;DHT22;2042;47.956;9.222;2023-03-11T02:43:57;1.10;1.00
4054;DHT22;2042;47.956;9.222;2023-03-11T02:46:23;1.00;1.00
4054;DHT22;2042;47.956;9.222;2023-03-11T02:48:50;1.00;1.00
4054;DHT22;2042;47.956;9.222;2023-03-11T02:51:16;1.00;1.00
4054;DHT22;2042;47.956;9.222;2023-03-11T02:53:46;1.00;1.00
4054;DHT22;2042;47.956;9.222;2023-03-11T02:56:12;1.10;1.00
4054;DHT22;2042;47.956;9.222;2023-03-11T02:58:38;1.10;1.00
4054;DHT22;2042;47.956;9.222;2023-03-11T03:01:03;1.10;1.00
4054;DHT22;2042;47.956;9.222;2023-03-11T03:03:29;1.20;1.00
4054;DHT22;2042;47.956;9.222;2023-03-11T03:05:55;1.20;1.00
4054;DHT22;2042;47.956;9.222;2023-03-11T03:08:20;1.20;1.00
4054;DHT22;2042;47.956;9.222;2023-03-11T03:10:46;1.20;1.00
4054;DHT22;2042;47.956;9.222;2023-03-11T03:13:11;1.20;1.00
4054;DHT22;2042;47.956;9.222;2023-03-11T03:15:37;1.20;1.00
4054;DHT22;2042;47.956;9.222;2023-03-11T03:18:03;1.20;1.00
4054;DHT22;2042;47.956;9.222;2023-03-11T03:20:29;1.20;1.00
4054;DHT22;2042;47.956;9.222;2023-03-11T03:22:54;1.20;1.00
4054;DHT22;2042;47.956;9.222;2023-03-11T03:25:20;1.20;1.00
4054;DHT22;2042;47.956;9.222;2023-03-11T03:27:47;1.20;1.00
4054;DHT22;2042;47.956;9.222;2023-03-11T03:30:13;1.10;1.00
4054;DHT22;2042;47.956;9.222;2023-03-11T03:32:39;1.10;1.00
4054;DHT22;2042;47.956;9.222;2023-03-11T03:35:05;1.10;1.00
4054;DHT22;2042;47.956;9.222;2023-03-11T03:37:35;1.10;1.00
4054;DHT22;2042;47.956;9.222;2023-03-11T03:40:02;1.10;1.00
4054;DHT22;2042;47.956;9.222;2023-03-11T03:42:33;1.10;1.00
4054;DHT22;2042;47.956;9.222;2023-03-11T03:44:58;1.10;1.00
4054;DHT22;2042;47.956;9.222;2023-03-11T03:47:24;1.10;1.00
4054;DHT22;2042;47.956;9.222;2023-03-11T03:49:49;1.10;1.00
4054;DHT22;2042;47.956;9.222;2023-03-11T03:52:15;1.00;1.00
4054;DHT22;2042;47.956;9.222;2023-03-11T03:54:41;1.00;1.00
4054;DHT22;2042;47.956;9.222;2023-03-11T03:57:06;1.00;1.00
4054;DHT22;2042;47.956;9.222;2023-03-11T03:59:32;0.90;1.00
4054;DHT22;2042;47.956;9.222;2023-03-11T04:01:57;0.90;1.00
4054;DHT22;2042;47.956;9.222;2023-03-11T04:04:23;0.80;1.00
4054;DHT22;2042;47.956;9.222;2023-03-11T04:06:49;0.80;1.00
4054;DHT22;2042;47.956;9.222;2023-03-11T04:09:15;0.80;1.00
4054;DHT22;2042;47.956;9.222;2023-03-11T04:11:40;0.70;1.00
4054;DHT22;2042;47.956;9.222;2023-03-11T04:14:06;0.70;1.00
4054;DHT22;2042;47.956;9.222;2023-03-11T04:16:32;0.70;1.00
4054;DHT22;2042;47.956;9.222;2023-03-11T04:18:57;0.60;1.00
4054;DHT22;2042;47.956;9.222;2023-03-11T04:21:23;0.60;1.00
4054;DHT22;2042;47.956;9.222;2023-03-11T04:23:49;0.60;1.00
4054;DHT22;2042;47.956;9.222;2023-03-11T04:26:14;0.60;1.00
4054;DHT22;2042;47.956;9.222;2023-03-11T04:28:40;0.50;1.00
4054;DHT22;2042;47.956;9.222;2023-03-11T04:31:06;0.50;1.00
4054;DHT22;2042;47.956;9.222;2023-03-11T04:33:31;0.40;1.00
4054;DHT22;2042;47.956;9.222;2023-03-11T04:35:57;0.30;1.00
4054;DHT22;2042;47.956;9.222;2023-03-11T04:38:23;0.30;1.00
4054;DHT22;2042;47.956;9.222;2023-03-11T04:40:49;0.20;1.00
4054;DHT22;2042;47.956;9.222;2023-03-11T04:43:16;0.10;1.00
4054;DHT22;2042;47.956;9.222;2023-03-11T04:45:41;0.00;1.00
4054;DHT22;2042;47.956;9.222;2023-03-11T04:48:07;-0.10;1.00
4054;DHT22;2042;47.956;9.222;2023-03-11T04:50:33;-0.20;1.00
4054;DHT22;2042;47.956;9.222;2023-03-11T04:52:59;-0.30;1.00
4054;DHT22;2042;47.956;9.222;2023-03-11T04:55:25;-0.40;1.00
4054;DHT22;2042;47.956;9.222;2023-03-11T04:57:50;-0.50;1.00
4054;DHT22;2042;47.956;9.222;2023-03-11T05:00:16;-0.50;1.00
4054;DHT22;2042;47.956;9.222;2023-03-11T05:02:46;-0.60;1.00
4054;DHT22;2042;47.956;9.222;2023-03-11T05:05:12;-0.60;1.00
4054;DHT22;2042;47.956;9.222;2023-03-11T05:07:37;-0.70;1.00
4054;DHT22;2042;47.956;9.222;2023-03-11T05:10:04;-0.80;1.00
4054;DHT22;2042;47.956;9.222;2023-03-11T05:12:30;-0.90;1.00
4054;DHT22;2042;47.956;9.222;2023-03-11T05:14:55;-1.00;1.00
4054;DHT22;2042;47.956;9.222;2023-03-11T05:17:21;-1.00;1.00
4054;DHT22;2042;47.956;9.222;2023-03-11T05:19:47;-1.00;1.00
4054;DHT22;2042;47.956;9.222;2023-03-11T05:22:13;-1.10;1.00
4054;DHT22;2042;47.956;9.222;2023-03-11T05:24:38;-1.10;1.00
4054;DHT22;2042;47.956;9.222;2023-03-11T05:27:04;-1.10;1.00
4054;DHT22;2042;47.956;9.222;2023-03-11T05:29:30;-1.10;1.00
4054;DHT22;2042;47.956;9.222;2023-03-11T05:31:56;-1.10;1.00
4054;DHT22;2042;47.956;9.222;2023-03-11T05:34:22;-1.10;1.00
4054;DHT22;2042;47.956;9.222;2023-03-11T05:36:47;-1.00;1.00
4054;DHT22;2042;47.956;9.222;2023-03-11T05:39:13;-1.00;1.00
4054;DHT22;2042;47.956;9.222;2023-03-11T05:41:40;-1.00;1.00
4054;DHT22;2042;47.956;9.222;2023-03-11T05:44:06;-0.90;1.00
4054;DHT22;2042;47.956;9.222;2023-03-11T05:46:31;-0.90;1.00
4054;DHT22;2042;47.956;9.222;2023-03-11T05:49:00;-0.90;1.00
4054;DHT22;2042;47.956;9.222;2023-03-11T05:51:26;-0.90;1.00
4054;DHT22;2042;47.956;9.222;2023-03-11T05:53:52;-0.80;1.00
4054;DHT22;2042;47.956;9.222;2023-03-11T05:56:20;-0.80;1.00
4054;DHT22;2042;47.956;9.222;2023-03-11T05:58:47;-0.80;1.00
4054;DHT22;2042;47.956;9.222;2023-03-11T06:01:14;-0.80;1.00
4054;DHT22;2042;47.956;9.222;2023-03-11T06:03:41;-0.70;1.00
4054;DHT22;2042;47.956;9.222;2023-03-11T06:06:08;-0.70;1.00
4054;DHT22;2042;47.956;9.222;2023-03-11T06:08:35;-0.70;1.00
4054;DHT22;2042;47.956;9.222;2023-03-11T06:11:08;-0.70;1.00
4054;DHT22;2042;47.956;9.222;2023-03-11T06:13:34;-0.70;1.00
4054;DHT22;2042;47.956;9.222;2023-03-11T06:16:00;-0.70;1.00
4054;DHT22;2042;47.956;9.222;2023-03-11T06:18:26;-0.70;1.00
4054;DHT22;2042;47.956;9.222;2023-03-11T06:20:53;-0.70;1.00
4054;DHT22;2042;47.956;9.222;2023-03-11T06:23:19;-0.70;1.00
4054;DHT22;2042;47.956;9.222;2023-03-11T06:26:00;-0.60;1.00
4054;DHT22;2042;47.956;9.222;2023-03-11T06:28:28;-0.50;1.00
4054;DHT22;2042;47.956;9.222;2023-03-11T06:30:54;-0.50;1.00
4054;DHT22;2042;47.956;9.222;2023-03-11T06:33:23;-0.50;1.00
4054;DHT22;2042;47.956;9.222;2023-03-11T06:36:00;-0.40;1.00
4054;DHT22;2042;47.956;9.222;2023-03-11T06:38:26;-0.40;1.00
4054;DHT22;2042;47.956;9.222;2023-03-11T06:40:52;-0.30;1.00
4054;DHT22;2042;47.956;9.222;2023-03-11T06:43:18;-0.30;1.00
4054;DHT22;2042;47.956;9.222;2023-03-11T06:45:45;-0.20;1.00
4054;DHT22;2042;47.956;9.222;2023-03-11T06:48:11;0.10;1.00
4054;DHT22;2042;47.956;9.222;2023-03-11T06:50:37;0.40;1.00
4054;DHT22;2042;47.956;9.222;2023-03-11T06:53:02;1.00;1.00
4054;DHT22;2042;47.956;9.222;2023-03-11T06:55:31;1.60;1.00
4054;DHT22;2042;47.956;9.222;2023-03-11T06:57:56;2.20;1.00
4054;DHT22;2042;47.956;9.222;2023-03-11T07:00:22;2.60;1.00
4054;DHT22;2042;47.956;9.222;2023-03-11T07:02:48;2.50;1.00
4054;DHT22;2042;47.956;9.222;2023-03-11T07:05:14;2.10;1.00
4054;DHT22;2042;47.956;9.222;2023-03-11T07:07:39;1.90;1.00
4054;DHT22;2042;47.956;9.222;2023-03-11T07:10:05;2.10;1.00
4054;DHT22;2042;47.956;9.222;2023-03-11T07:12:31;2.40;1.00
4054;DHT22;2042;47.956;9.222;2023-03-11T07:14:58;2.50;1.00
4054;DHT22;2042;47.956;9.222;2023-03-11T07:17:24;2.60;1.00
4054;DHT22;2042;47.956;9.222;2023-03-11T07:19:50;2.70;1.00
4054;DHT22;2042;47.956;9.222;2023-03-11T07:22:15;2.80;1.00
4054;DHT22;2042;47.956;9.222;2023-03-11T07:24:44;3.00;1.00
4054;DHT22;2042;47.956;9.222;2023-03-11T07:27:10;3.30;1.00
4054;DHT22;2042;47.956;9.222;2023-03-11T07:29:36;3.60;1.00
4054;DHT22;2042;47.956;9.222;2023-03-11T07:32:02;3.60;1.00
4054;DHT22;2042;47.956;9.222;2023-03-11T07:34:27;3.10;1.00
4054;DHT22;2042;47.956;9.222;2023-03-11T07:36:53;2.70;1.00
4054;DHT22;2042;47.956;9.222;2023-03-11T07:39:19;2.70;1.00
4054;DHT22;2042;47.956;9.222;2023-03-11T07:41:45;2.90;1.00
4054;DHT22;2042;47.956;9.222;2023-03-11T07:44:12;3.00;1.00
4054;DHT22;2042;47.956;9.222;2023-03-11T07:46:38;3.20;1.00
4054;DHT22;2042;47.956;9.222;2023-03-11T07:49:03;3.40;1.00
4054;DHT22;2042;47.956;9.222;2023-03-11T07:51:31;3.40;1.00
4054;DHT22;2042;47.956;9.222;2023-03-11T07:53:59;3.40;1.00
4054;DHT22;2042;47.956;9.222;2023-03-11T07:56:27;3.30;1.00
4054;DHT22;2042;47.956;9.222;2023-03-11T07:58:53;3.20;1.00
4054;DHT22;2042;47.956;9.222;2023-03-11T08:01:21;3.00;1.00
4054;DHT22;2042;47.956;9.222;2023-03-11T08:03:50;2.90;1.00
4054;DHT22;2042;47.956;9.222;2023-03-11T08:06:21;2.70;1.00
4054;DHT22;2042;47.956;9.222;2023-03-11T08:08:48;2.40;1.00
4054;DHT22;2042;47.956;9.222;2023-03-11T08:11:15;2.40;1.00
4054;DHT22;2042;47.956;9.222;2023-03-11T08:13:42;2.50;1.00
4054;DHT22;2042;47.956;9.222;2023-03-11T08:16:10;2.70;1.00
4054;DHT22;2042;47.956;9.222;2023-03-11T08:18:36;3.00;1.00
4054;DHT22;2042;47.956;9.222;2023-03-11T08:21:11;3.10;1.00
4054;DHT22;2042;47.956;9.222;2023-03-11T08:23:37;3.20;1.00
4054;DHT22;2042;47.956;9.222;2023-03-11T08:26:08;3.20;1.00
4054;DHT22;2042;47.956;9.222;2023-03-11T08:28:34;3.40;1.00
4054;DHT22;2042;47.956;9.222;2023-03-11T08:31:00;3.50;1.00
4054;DHT22;2042;47.956;9.222;2023-03-11T08:33:26;3.60;1.00
4054;DHT22;2042;47.956;9.222;2023-03-11T08:35:52;3.70;1.00
4054;DHT22;2042;47.956;9.222;2023-03-11T08:38:18;3.80;1.00
4054;DHT22;2042;47.956;9.222;2023-03-11T08:40:43;4.10;1.00
4054;DHT22;2042;47.956;9.222;2023-03-11T08:43:13;4.30;1.00
4054;DHT22;2042;47.956;9.222;2023-03-11T08:45:40;4.60;1.00
4054;DHT22;2042;47.956;9.222;2023-03-11T08:48:06;5.40;1.00
4054;DHT22;2042;47.956;9.222;2023-03-11T08:50:33;5.70;1.00
4054;DHT22;2042;47.956;9.222;2023-03-11T08:52:58;7.10;1.00
4054;DHT22;2042;47.956;9.222;2023-03-11T08:55:27;7.90;1.00
4054;DHT22;2042;47.956;9.222;2023-03-11T08:57:54;8.70;1.00
4054;DHT22;2042;47.956;9.222;2023-03-11T09:00:20;9.30;1.00
4054;DHT22;2042;47.956;9.222;2023-03-11T09:02:47;10.00;1.00
4054;DHT22;2042;47.956;9.222;2023-03-11T09:07:39;11.00;1.00
4054;DHT22;2042;47.956;9.222;2023-03-11T09:12:34;12.80;1.00
4054;DHT22;2042;47.956;9.222;2023-03-11T09:14:59;13.90;1.00
4054;DHT22;2042;47.956;9.222;2023-03-11T09:17:25;14.60;1.00
4054;DHT22;2042;47.956;9.222;2023-03-11T09:22:18;16.10;1.00
4054;DHT22;2042;47.956;9.222;2023-03-11T09:24:44;17.40;1.00
4054;DHT22;2042;47.956;9.222;2023-03-11T09:27:09;18.50;1.00
4054;DHT22;2042;47.956;9.222;2023-03-11T09:29:37;19.50;1.00
4054;DHT22;2042;47.956;9.222;2023-03-11T09:32:03;19.90;1.00
4054;DHT22;2042;47.956;9.222;2023-03-11T09:34:29;19.20;1.00
4054;DHT22;2042;47.956;9.222;2023-03-11T09:36:54;17.90;1.00
4054;DHT22;2042;47.956;9.222;2023-03-11T09:39:20;17.90;1.00
4054;DHT22;2042;47.956;9.222;2023-03-11T09:41:53;18.50;1.00
4054;DHT22;2042;47.956;9.222;2023-03-11T09:44:45;19.70;1.00
4054;DHT22;2042;47.956;9.222;2023-03-11T09:52:51;19.60;1.00
4054;DHT22;2042;47.956;9.222;2023-03-11T09:55:33;19.80;1.00
4054;DHT22;2042;47.956;9.222;2023-03-11T09:58:08;20.70;1.00
4054;DHT22;2042;47.956;9.222;2023-03-11T10:00:35;20.70;1.00
4054;DHT22;2042;47.956;9.222;2023-03-11T10:03:01;20.00;1.00
4054;DHT22;2042;47.956;9.222;2023-03-11T10:05:28;20.00;1.00
4054;DHT22;2042;47.956;9.222;2023-03-11T10:08:01;19.60;1.00
4054;DHT22;2042;47.956;9.222;2023-03-11T10:10:32;19.90;1.00
4054;DHT22;2042;47.956;9.222;2023-03-11T10:13:09;20.20;1.00
4054;DHT22;2042;47.956;9.222;2023-03-11T10:15:54;21.10;1.00
4054;DHT22;2042;47.956;9.222;2023-03-11T10:18:46;21.60;1.00
4054;DHT22;2042;47.956;9.222;2023-03-11T10:26:46;21.10;1.00
4054;DHT22;2042;47.956;9.222;2023-03-11T10:29:28;21.70;1.00
4054;DHT22;2042;47.956;9.222;2023-03-11T10:34:45;22.00;1.00
4054;DHT22;2042;47.956;9.222;2023-03-11T10:37:28;22.60;1.00
4054;DHT22;2042;47.956;9.222;2023-03-11T10:40:03;23.30;1.00
4054;DHT22;2042;47.956;9.222;2023-03-11T10:42:32;23.40;1.00
4054;DHT22;2042;47.956;9.222;2023-03-11T10:44:59;24.00;1.00
4054;DHT22;2042;47.956;9.222;2023-03-11T10:47:25;23.40;1.00
4054;DHT22;2042;47.956;9.222;2023-03-11T10:49:51;22.80;1.00
4054;DHT22;2042;47.956;9.222;2023-03-11T10:52:17;23.10;1.00
4054;DHT22;2042;47.956;9.222;2023-03-11T10:54:46;23.50;1.00
4054;DHT22;2042;47.956;9.222;2023-03-11T10:57:33;23.50;1.00
4054;DHT22;2042;47.956;9.222;2023-03-11T11:00:02;23.40;1.00
4054;DHT22;2042;47.956;9.222;2023-03-11T11:02:52;23.10;1.00
4054;DHT22;2042;47.956;9.222;2023-03-11T11:05:27;23.20;1.00
4054;DHT22;2042;47.956;9.222;2023-03-11T11:08:08;23.00;1.00
4054;DHT22;2042;47.956;9.222;2023-03-11T11:10:36;23.10;1.00
4054;DHT22;2042;47.956;9.222;2023-03-11T11:13:17;23.00;1.00
4054;DHT22;2042;47.956;9.222;2023-03-11T11:16:18;23.10;1.00
4054;DHT22;2042;47.956;9.222;2023-03-11T11:19:17;22.90;1.00
4054;DHT22;2042;47.956;9.222;2023-03-11T11:21:48;22.60;1.00
4054;DHT22;2042;47.956;9.222;2023-03-11T11:24:26;22.60;1.00
4054;DHT22;2042;47.956;9.222;2023-03-11T11:27:27;22.50;1.00
4054;DHT22;2042;47.956;9.222;2023-03-11T11:30:25;22.10;1.00
4054;DHT22;2042;47.956;9.222;2023-03-11T11:32:53;22.20;1.00
4054;DHT22;2042;47.956;9.222;2023-03-11T11:35:21;22.70;1.00
4054;DHT22;2042;47.956;9.222;2023-03-11T11:37:50;23.40;1.00
4054;DHT22;2042;47.956;9.222;2023-03-11T11:40:42;23.90;1.00
4054;DHT22;2042;47.956;9.222;2023-03-11T11:43:17;24.00;1.00
4054;DHT22;2042;47.956;9.222;2023-03-11T11:46:01;24.00;1.00
4054;DHT22;2042;47.956;9.222;2023-03-11T11:48:49;23.90;1.00
4054;DHT22;2042;47.956;9.222;2023-03-11T11:51:23;23.60;1.00
4054;DHT22;2042;47.956;9.222;2023-03-11T11:56:54;22.40;1.00
4054;DHT22;2042;47.956;9.222;2023-03-11T11:59:22;21.90;1.00
4054;DHT22;2042;47.956;9.222;2023-03-11T12:10:36;23.50;1.00
4054;DHT22;2042;47.956;9.222;2023-03-11T12:15:41;23.20;1.00
4054;DHT22;2042;47.956;9.222;2023-03-11T12:18:14;23.50;1.00
4054;DHT22;2042;47.956;9.222;2023-03-11T12:20:46;23.60;1.00
4054;DHT22;2042;47.956;9.222;2023-03-11T12:31:16;23.90;1.00
4054;DHT22;2042;47.956;9.222;2023-03-11T12:33:45;24.00;1.00
4054;DHT22;2042;47.956;9.222;2023-03-11T12:38:49;24.70;1.00
4054;DHT22;2042;47.956;9.222;2023-03-11T12:41:28;24.30;1.00
4054;DHT22;2042;47.956;9.222;2023-03-11T12:49:30;22.80;1.00
4054;DHT22;2042;47.956;9.222;2023-03-11T12:52:03;22.00;1.00
4054;DHT22;2042;47.956;9.222;2023-03-11T12:59:46;22.20;1.00
4054;DHT22;2042;47.956;9.222;2023-03-11T13:05:50;22.60;1.00
4054;DHT22;2042;47.956;9.222;2023-03-11T13:08:28;21.80;1.00
4054;DHT22;2042;47.956;9.222;2023-03-11T13:10:57;20.20;1.00
4054;DHT22;2042;47.956;9.222;2023-03-11T13:13:38;20.10;1.00
4054;DHT22;2042;47.956;9.222;2023-03-11T15:17:57;9.00;1.00
4054;DHT22;2042;47.956;9.222;2023-03-11T15:20:30;8.70;1.00
4054;DHT22;2042;47.956;9.222;2023-03-11T15:22:58;8.10;1.00
4054;DHT22;2042;47.956;9.222;2023-03-11T15:25:33;7.70;1.00
4054;DHT22;2042;47.956;9.222;2023-03-11T15:28:13;7.70;1.00
4054;DHT22;2042;47.956;9.222;2023-03-11T15:30:39;7.90;1.00
4054;DHT22;2042;47.956;9.222;2023-03-11T15:33:22;8.00;1.00
4054;DHT22;2042;47.956;9.222;2023-03-11T15:35:48;8.10;1.00
4054;DHT22;2042;47.956;9.222;2023-03-11T15:38:23;8.10;1.00
4054;DHT22;2042;47.956;9.222;2023-03-11T15:43:29;7.90;1.00
4054;DHT22;2042;47.956;9.222;2023-03-11T15:45:57;7.90;1.00
4054;DHT22;2042;47.956;9.222;2023-03-11T15:48:24;7.90;1.00
4054;DHT22;2042;47.956;9.222;2023-03-11T15:50:59;7.80;1.00
4054;DHT22;2042;47.956;9.222;2023-03-11T16:05:39;6.20;1.00
4054;DHT22;2042;47.956;9.222;2023-03-11T16:08:05;6.10;1.00
4054;DHT22;2042;47.956;9.222;2023-03-11T16:10:30;5.90;1.00
4054;DHT22;2042;47.956;9.222;2023-03-11T16:12:56;5.70;1.00
4054;DHT22;2042;47.956;9.222;2023-03-11T16:15:33;5.70;1.00
4054;DHT22;2042;47.956;9.222;2023-03-11T16:18:01;5.60;1.00
4054;DHT22;2042;47.956;9.222;2023-03-11T16:20:30;5.50;1.00
4054;DHT22;2042;47.956;9.222;2023-03-11T16:22:58;5.40;1.00
4054;DHT22;2042;47.956;9.222;2023-03-11T16:25:29;5.30;1.00
4054;DHT22;2042;47.956;9.222;2023-03-11T16:27:56;5.20;1.00
4054;DHT22;2042;47.956;9.222;2023-03-11T16:30:23;5.10;1.00
4054;DHT22;2042;47.956;9.222;2023-03-11T16:32:49;5.10;1.00
4054;DHT22;2042;47.956;9.222;2023-03-11T16:35:15;5.00;1.00
4054;DHT22;2042;47.956;9.222;2023-03-11T16:37:41;5.00;1.00
4054;DHT22;2042;47.956;9.222;2023-03-11T16:40:21;5.10;1.00
4054;DHT22;2042;47.956;9.222;2023-03-11T16:42:49;5.00;1.00
4054;DHT22;2042;47.956;9.222;2023-03-11T16:45:16;4.90;1.00
4054;DHT22;2042;47.956;9.222;2023-03-11T16:47:42;4.80;1.00
4054;DHT22;2042;47.956;9.222;2023-03-11T16:50:09;4.70;1.00
4054;DHT22;2042;47.956;9.222;2023-03-11T16:52:35;4.50;1.00
4054;DHT22;2042;47.956;9.222;2023-03-11T16:55:01;4.50;1.00
4054;DHT22;2042;47.956;9.222;2023-03-11T16:57:26;4.40;1.00
4054;DHT22;2042;47.956;9.222;2023-03-11T16:59:52;4.40;1.00
4054;DHT22;2042;47.956;9.222;2023-03-11T17:02:18;4.40;1.00
4054;DHT22;2042;47.956;9.222;2023-03-11T17:04:44;4.50;1.00
4054;DHT22;2042;47.956;9.222;2023-03-11T17:07:09;4.40;1.00
4054;DHT22;2042;47.956;9.222;2023-03-11T17:09:35;4.40;1.00
4054;DHT22;2042;47.956;9.222;2023-03-11T17:12:02;4.30;1.00
4054;DHT22;2042;47.956;9.222;2023-03-11T17:14:28;4.20;1.00
4054;DHT22;2042;47.956;9.222;2023-03-11T17:16:54;4.10;1.00
4054;DHT22;2042;47.956;9.222;2023-03-11T17:19:19;4.10;1.00
4054;DHT22;2042;47.956;9.222;2023-03-11T17:21:45;4.10;1.00
4054;DHT22;2042;47.956;9.222;2023-03-11T17:24:11;4.10;1.00
4054;DHT22;2042;47.956;9.222;2023-03-11T17:26:37;4.10;1.00
4054;DHT22;2042;47.956;9.222;2023-03-11T17:29:03;4.10;1.00
4054;DHT22;2042;47.956;9.222;2023-03-11T17:31:29;4.00;1.00
4054;DHT22;2042;47.956;9.222;2023-03-11T17:33:55;4.00;1.00
4054;DHT22;2042;47.956;9.222;2023-03-11T17:36:23;3.90;1.00
4054;DHT22;2042;47.956;9.222;2023-03-11T17:38:51;3.90;1.00
4054;DHT22;2042;47.956;9.222;2023-03-11T17:41:17;3.90;1.00
4054;DHT22;2042;47.956;9.222;2023-03-11T17:43:44;3.90;1.00
4054;DHT22;2042;47.956;9.222;2023-03-11T17:46:12;3.90;1.00
4054;DHT22;2042;47.956;9.222;2023-03-11T17:48:40;3.80;1.00
4054;DHT22;2042;47.956;9.222;2023-03-11T17:51:07;3.80;1.00
4054;DHT22;2042;47.956;9.222;2023-03-11T17:53:35;3.80;1.00
4054;DHT22;2042;47.956;9.222;2023-03-11T17:56:01;3.80;1.00
4054;DHT22;2042;47.956;9.222;2023-03-11T17:58:27;3.70;1.00
4054;DHT22;2042;47.956;9.222;2023-03-11T18:00:52;3.70;1.00
4054;DHT22;2042;47.956;9.222;2023-03-11T18:03:18;3.70;1.00
4054;DHT22;2042;47.956;9.222;2023-03-11T18:05:56;3.50;1.00
4054;DHT22;2042;47.956;9.222;2023-03-11T18:08:22;3.50;1.00
4054;DHT22;2042;47.956;9.222;2023-03-11T18:10:49;3.40;1.00
4054;DHT22;2042;47.956;9.222;2023-03-11T18:13:15;3.30;1.00
4054;DHT22;2042;47.956;9.222;2023-03-11T18:15:40;3.20;1.00
4054;DHT22;2042;47.956;9.222;2023-03-11T18:18:06;3.20;1.00
4054;DHT22;2042;47.956;9.222;2023-03-11T18:20:32;3.10;1.00
4054;DHT22;2042;47.956;9.222;2023-03-11T18:22:57;3.10;1.00
4054;DHT22;2042;47.956;9.222;2023-03-11T18:25:23;3.00;1.00
4054;DHT22;2042;47.956;9.222;2023-03-11T18:27:48;2.90;1.00
4054;DHT22;2042;47.956;9.222;2023-03-11T18:30:14;2.90;1.00
4054;DHT22;2042;47.956;9.222;2023-03-11T18:32:40;2.90;1.00
4054;DHT22;2042;47.956;9.222;2023-03-11T18:35:06;2.80;1.00
4054;DHT22;2042;47.956;9.222;2023-03-11T18:37:32;2.80;1.00
4054;DHT22;2042;47.956;9.222;2023-03-11T18:39:58;2.80;1.00
4054;DHT22;2042;47.956;9.222;2023-03-11T18:42:23;2.80;1.00
4054;DHT22;2042;47.956;9.222;2023-03-11T18:44:49;2.80;1.00
4054;DHT22;2042;47.956;9.222;2023-03-11T18:47:15;2.80;1.00
4054;DHT22;2042;47.956;9.222;2023-03-11T18:49:40;2.70;1.00
4054;DHT22;2042;47.956;9.222;2023-03-11T18:52:06;2.70;1.00
4054;DHT22;2042;47.956;9.222;2023-03-11T18:54:32;2.70;1.00
4054;DHT22;2042;47.956;9.222;2023-03-11T18:56:57;2.70;1.00
4054;DHT22;2042;47.956;9.222;2023-03-11T18:59:23;2.70;1.70
4054;DHT22;2042;47.956;9.222;2023-03-11T19:01:51;2.60;2.40
4054;DHT22;2042;47.956;9.222;2023-03-11T19:04:16;2.60;3.20
4054;DHT22;2042;47.956;9.222;2023-03-11T19:06:42;2.60;4.00
4054;DHT22;2042;47.956;9.222;2023-03-11T19:09:07;2.60;4.90
4054;DHT22;2042;47.956;9.222;2023-03-11T19:11:35;2.50;5.10
4054;DHT22;2042;47.956;9.222;2023-03-11T19:14:02;2.50;5.50
4054;DHT22;2042;47.956;9.222;2023-03-11T19:16:28;2.50;6.50
4054;DHT22;2042;47.956;9.222;2023-03-11T19:18:54;2.50;7.10
4054;DHT22;2042;47.956;9.222;2023-03-11T19:21:20;2.50;7.50
4054;DHT22;2042;47.956;9.222;2023-03-11T19:23:46;2.50;8.00
4054;DHT22;2042;47.956;9.222;2023-03-11T19:26:14;2.50;8.30
4054;DHT22;2042;47.956;9.222;2023-03-11T19:28:40;2.50;8.60
4054;DHT22;2042;47.956;9.222;2023-03-11T19:31:06;2.40;8.60
4054;DHT22;2042;47.956;9.222;2023-03-11T19:33:32;2.40;8.80
4054;DHT22;2042;47.956;9.222;2023-03-11T19:36:00;2.40;9.20
4054;DHT22;2042;47.956;9.222;2023-03-11T19:38:27;2.30;9.20
4054;DHT22;2042;47.956;9.222;2023-03-11T19:40:58;2.30;9.20
4054;DHT22;2042;47.956;9.222;2023-03-11T19:43:25;2.20;8.60
4054;DHT22;2042;47.956;9.222;2023-03-11T19:45:51;2.10;7.90
4054;DHT22;2042;47.956;9.222;2023-03-11T19:48:17;1.90;6.90
4054;DHT22;2042;47.956;9.222;2023-03-11T19:50:48;1.80;6.40
4054;DHT22;2042;47.956;9.222;2023-03-11T19:53:14;1.70;6.10
4054;DHT22;2042;47.956;9.222;2023-03-11T19:55:44;1.60;5.10